sensor_id;sensor_type;location;lat;lon;timestamp;P1;durP1;ratioP1;P2;durP2;ratioP2
2021;SDS011;1015;49.756;6.994;2022-11-02T00:02:19;6.70;;;2.33;;
2021;SDS011;1015;49.756;6.994;2022-11-02T00:04:46;6.37;;;3.03;;
2021;SDS011;1015;49.756;6.994;2022-11-02T00:07:15;7.37;;;2.50;;
2021;SDS011;1015;49.756;6.994;2022-11-02T00:09:41;9.23;;;3.30;;
2021;SDS011;1015;49.756;6.994;2022-11-02T00:12:08;7.27;;;2.97;;
2021;SDS011;1015;49.756;6.994;2022-11-02T00:14:35;8.73;;;2.83;;
2021;SDS011;1015;49.756;6.994;2022-11-02T00:17:02;8.23;;;3.20;;
2021;SDS011;1015;49.756;6.994;2022-11-02T00:19:29;5.63;;;2.80;;
2021;SDS011;1015;49.756;6.994;2022-11-02T00:21:58;10.20;;;2.50;;
2021;SDS011;1015;49.756;6.994;2022-11-02T00:24:26;7.70;;;2.67;;
2021;SDS011;1015;49.756;6.994;2022-11-02T00:26:53;5.27;;;2.90;;
2021;SDS011;1015;49.756;6.994;2022-11-02T00:29:20;7.30;;;3.60;;
2021;SDS011;1015;49.756;6.994;2022-11-02T00:31:48;6.03;;;2.90;;
2021;SDS011;1015;49.756;6.994;2022-11-02T00:34:15;9.60;;;3.10;;
2021;SDS011;1015;49.756;6.994;2022-11-02T00:36:42;7.23;;;2.50;;
2021;SDS011;1015;49.756;6.994;2022-11-02T00:39:10;8.40;;;2.60;;
2021;SDS011;1015;49.756;6.994;2022-11-02T00:41:37;10.97;;;3.37;;
2021;SDS011;1015;49.756;6.994;2022-11-02T00:44:04;5.43;;;2.60;;
2021;SDS011;1015;49.756;6.994;2022-11-02T00:46:31;10.23;;;3.90;;
2021;SDS011;1015;49.756;6.994;2022-11-02T00:48:58;7.77;;;3.80;;
2021;SDS011;1015;49.756;6.994;2022-11-02T00:51:25;7.37;;;3.00;;
2021;SDS011;1015;49.756;6.994;2022-11-02T00:53:52;7.30;;;3.30;;
2021;SDS011;1015;49.756;6.994;2022-11-02T00:56:21;6.73;;;3.20;;
2021;SDS011;1015;49.756;6.994;2022-11-02T00:58:48;10.43;;;3.37;;
2021;SDS011;1015;49.756;6.994;2022-11-02T01:01:15;14.53;;;3.43;;
2021;SDS011;1015;49.756;6.994;2022-11-02T01:03:42;6.50;;;2.93;;
2021;SDS011;1015;49.756;6.994;2022-11-02T01:06:09;9.20;;;3.03;;
2021;SDS011;1015;49.756;6.994;2022-11-02T01:08:37;8.33;;;3.43;;
2021;SDS011;1015;49.756;6.994;2022-11-02T01:11:08;7.57;;;3.57;;
2021;SDS011;1015;49.756;6.994;2022-11-02T01:13:37;9.57;;;3.47;;
2021;SDS011;1015;49.756;6.994;2022-11-02T01:16:04;7.37;;;3.67;;
2021;SDS011;1015;49.756;6.994;2022-11-02T01:18:32;9.30;;;3.43;;
2021;SDS011;1015;49.756;6.994;2022-11-02T01:20:59;5.50;;;3.27;;
2021;SDS011;1015;49.756;6.994;2022-11-02T01:23:27;7.20;;;3.23;;
2021;SDS011;1015;49.756;6.994;2022-11-02T01:25:56;8.00;;;3.30;;
2021;SDS011;1015;49.756;6.994;2022-11-02T01:28:23;5.77;;;2.90;;
2021;SDS011;1015;49.756;6.994;2022-11-02T01:30:52;7.60;;;3.57;;
2021;SDS011;1015;49.756;6.994;2022-11-02T01:33:18;8.67;;;2.73;;
2021;SDS011;1015;49.756;6.994;2022-11-02T01:35:45;8.23;;;3.37;;
2021;SDS011;1015;49.756;6.994;2022-11-02T01:38:12;10.20;;;3.97;;
2021;SDS011;1015;49.756;6.994;2022-11-02T01:40:39;4.60;;;2.80;;
2021;SDS011;1015;49.756;6.994;2022-11-02T01:43:19;6.63;;;2.80;;
2021;SDS011;1015;49.756;6.994;2022-11-02T01:45:47;6.87;;;3.27;;
2021;SDS011;1015;49.756;6.994;2022-11-02T01:48:19;5.07;;;3.10;;
2021;SDS011;1015;49.756;6.994;2022-11-02T01:50:51;6.00;;;2.47;;
2021;SDS011;1015;49.756;6.994;2022-11-02T01:53:19;7.83;;;2.83;;
2021;SDS011;1015;49.756;6.994;2022-11-02T01:55:46;8.73;;;3.17;;
2021;SDS011;1015;49.756;6.994;2022-11-02T01:58:13;6.13;;;2.80;;
2021;SDS011;1015;49.756;6.994;2022-11-02T02:00:40;6.30;;;3.00;;
2021;SDS011;1015;49.756;6.994;2022-11-02T02:03:08;4.93;;;3.07;;
2021;SDS011;1015;49.756;6.994;2022-11-02T02:05:39;7.80;;;3.03;;
2021;SDS011;1015;49.756;6.994;2022-11-02T02:08:07;5.10;;;2.67;;
2021;SDS011;1015;49.756;6.994;2022-11-02T02:10:37;5.27;;;2.77;;
2021;SDS011;1015;49.756;6.994;2022-11-02T02:13:04;7.13;;;2.23;;
2021;SDS011;1015;49.756;6.994;2022-11-02T02:15:34;3.93;;;2.70;;
2021;SDS011;1015;49.756;6.994;2022-11-02T02:18:06;6.47;;;3.03;;
2021;SDS011;1015;49.756;6.994;2022-11-02T02:20:50;5.53;;;2.83;;
2021;SDS011;1015;49.756;6.994;2022-11-02T02:23:37;7.20;;;2.40;;
2021;SDS011;1015;49.756;6.994;2022-11-02T02:26:49;6.67;;;2.53;;
2021;SDS011;1015;49.756;6.994;2022-11-02T02:29:26;4.20;;;2.53;;
2021;SDS011;1015;49.756;6.994;2022-11-02T02:31:59;10.10;;;3.37;;
2021;SDS011;1015;49.756;6.994;2022-11-02T02:34:32;5.20;;;2.57;;
2021;SDS011;1015;49.756;6.994;2022-11-02T02:37:03;11.57;;;2.67;;
2021;SDS011;1015;49.756;6.994;2022-11-02T02:39:35;6.07;;;2.50;;
2021;SDS011;1015;49.756;6.994;2022-11-02T02:42:10;6.87;;;2.93;;
2021;SDS011;1015;49.756;6.994;2022-11-02T02:44:47;6.97;;;2.53;;
2021;SDS011;1015;49.756;6.994;2022-11-02T02:47:20;6.23;;;2.33;;
2021;SDS011;1015;49.756;6.994;2022-11-02T02:49:52;6.83;;;1.67;;
2021;SDS011;1015;49.756;6.994;2022-11-02T02:52:23;5.40;;;2.60;;
2021;SDS011;1015;49.756;6.994;2022-11-02T02:54:52;5.40;;;2.10;;
2021;SDS011;1015;49.756;6.994;2022-11-02T02:57:23;8.03;;;2.70;;
2021;SDS011;1015;49.756;6.994;2022-11-02T02:59:55;11.33;;;2.20;;
2021;SDS011;1015;49.756;6.994;2022-11-02T03:02:23;5.80;;;2.30;;
2021;SDS011;1015;49.756;6.994;2022-11-02T03:04:52;9.20;;;2.40;;
2021;SDS011;1015;49.756;6.994;2022-11-02T03:07:19;7.10;;;2.60;;
2021;SDS011;1015;49.756;6.994;2022-11-02T03:09:50;9.90;;;2.20;;
2021;SDS011;1015;49.756;6.994;2022-11-02T03:12:22;3.73;;;1.90;;
2021;SDS011;1015;49.756;6.994;2022-11-02T03:15:06;5.23;;;2.00;;
2021;SDS011;1015;49.756;6.994;2022-11-02T03:17:39;6.37;;;2.10;;
2021;SDS011;1015;49.756;6.994;2022-11-02T03:20:14;6.47;;;2.30;;
2021;SDS011;1015;49.756;6.994;2022-11-02T03:22:51;5.47;;;2.50;;
2021;SDS011;1015;49.756;6.994;2022-11-02T03:25:28;5.83;;;2.00;;
2021;SDS011;1015;49.756;6.994;2022-11-02T03:28:02;6.20;;;2.50;;
2021;SDS011;1015;49.756;6.994;2022-11-02T03:30:41;6.17;;;2.20;;
2021;SDS011;1015;49.756;6.994;2022-11-02T03:33:14;6.70;;;2.57;;
2021;SDS011;1015;49.756;6.994;2022-11-02T03:35:46;8.73;;;2.20;;
2021;SDS011;1015;49.756;6.994;2022-11-02T03:38:21;4.20;;;2.50;;
2021;SDS011;1015;49.756;6.994;2022-11-02T03:40:51;3.73;;;1.93;;
2021;SDS011;1015;49.756;6.994;2022-11-02T03:43:19;9.10;;;2.10;;
2021;SDS011;1015;49.756;6.994;2022-11-02T03:45:50;5.40;;;2.60;;
2021;SDS011;1015;49.756;6.994;2022-11-02T03:48:20;6.90;;;2.17;;
2021;SDS011;1015;49.756;6.994;2022-11-02T03:50:50;6.67;;;1.87;;
2021;SDS011;1015;49.756;6.994;2022-11-02T03:53:19;5.03;;;2.17;;
2021;SDS011;1015;49.756;6.994;2022-11-02T03:55:52;5.47;;;2.33;;
2021;SDS011;1015;49.756;6.994;2022-11-02T03:58:22;5.77;;;2.53;;
2021;SDS011;1015;49.756;6.994;2022-11-02T04:00:51;6.10;;;2.50;;
2021;SDS011;1015;49.756;6.994;2022-11-02T04:03:21;4.00;;;2.37;;
2021;SDS011;1015;49.756;6.994;2022-11-02T04:05:49;5.47;;;3.17;;
2021;SDS011;1015;49.756;6.994;2022-11-02T04:08:17;5.17;;;2.23;;
2021;SDS011;1015;49.756;6.994;2022-11-02T04:10:53;6.23;;;2.80;;
2021;SDS011;1015;49.756;6.994;2022-11-02T04:13:37;6.27;;;2.70;;
2021;SDS011;1015;49.756;6.994;2022-11-02T04:16:23;4.03;;;2.73;;
2021;SDS011;1015;49.756;6.994;2022-11-02T04:18:50;5.17;;;2.57;;
2021;SDS011;1015;49.756;6.994;2022-11-02T04:21:34;4.03;;;2.23;;
2021;SDS011;1015;49.756;6.994;2022-11-02T04:24:01;4.40;;;2.00;;
2021;SDS011;1015;49.756;6.994;2022-11-02T04:26:46;9.40;;;2.70;;
2021;SDS011;1015;49.756;6.994;2022-11-02T04:29:16;4.30;;;2.50;;
2021;SDS011;1015;49.756;6.994;2022-11-02T04:31:44;7.23;;;2.40;;
2021;SDS011;1015;49.756;6.994;2022-11-02T04:34:11;4.97;;;2.23;;
2021;SDS011;1015;49.756;6.994;2022-11-02T04:36:37;8.80;;;2.40;;
2021;SDS011;1015;49.756;6.994;2022-11-02T04:39:05;10.47;;;2.17;;
2021;SDS011;1015;49.756;6.994;2022-11-02T04:41:31;5.03;;;2.13;;
2021;SDS011;1015;49.756;6.994;2022-11-02T04:44:06;4.93;;;2.47;;
2021;SDS011;1015;49.756;6.994;2022-11-02T04:46:34;8.77;;;2.70;;
2021;SDS011;1015;49.756;6.994;2022-11-02T04:49:03;9.73;;;2.40;;
2021;SDS011;1015;49.756;6.994;2022-11-02T04:51:31;8.33;;;2.50;;
2021;SDS011;1015;49.756;6.994;2022-11-02T04:53:58;5.40;;;2.40;;
2021;SDS011;1015;49.756;6.994;2022-11-02T04:56:26;7.13;;;2.60;;
2021;SDS011;1015;49.756;6.994;2022-11-02T04:58:55;5.93;;;2.60;;
2021;SDS011;1015;49.756;6.994;2022-11-02T05:01:23;5.93;;;2.57;;
2021;SDS011;1015;49.756;6.994;2022-11-02T05:03:52;8.03;;;2.50;;
2021;SDS011;1015;49.756;6.994;2022-11-02T05:06:21;5.50;;;2.40;;
2021;SDS011;1015;49.756;6.994;2022-11-02T05:08:49;5.13;;;2.50;;
2021;SDS011;1015;49.756;6.994;2022-11-02T05:11:16;5.20;;;2.37;;
2021;SDS011;1015;49.756;6.994;2022-11-02T05:13:43;4.17;;;2.00;;
2021;SDS011;1015;49.756;6.994;2022-11-02T05:16:10;4.70;;;2.13;;
2021;SDS011;1015;49.756;6.994;2022-11-02T05:18:38;6.10;;;2.43;;
2021;SDS011;1015;49.756;6.994;2022-11-02T05:21:06;4.90;;;2.20;;
2021;SDS011;1015;49.756;6.994;2022-11-02T05:23:35;7.97;;;2.43;;
2021;SDS011;1015;49.756;6.994;2022-11-02T05:26:04;4.90;;;2.60;;
2021;SDS011;1015;49.756;6.994;2022-11-02T05:28:31;5.40;;;2.33;;
2021;SDS011;1015;49.756;6.994;2022-11-02T05:30:59;7.03;;;1.97;;
2021;SDS011;1015;49.756;6.994;2022-11-02T05:33:27;5.83;;;2.33;;
2021;SDS011;1015;49.756;6.994;2022-11-02T05:35:54;10.50;;;2.80;;
2021;SDS011;1015;49.756;6.994;2022-11-02T05:38:22;5.57;;;2.30;;
2021;SDS011;1015;49.756;6.994;2022-11-02T05:40:54;10.57;;;2.97;;
2021;SDS011;1015;49.756;6.994;2022-11-02T05:43:22;7.37;;;3.03;;
2021;SDS011;1015;49.756;6.994;2022-11-02T05:45:50;5.50;;;2.63;;
2021;SDS011;1015;49.756;6.994;2022-11-02T05:48:19;7.00;;;2.63;;
2021;SDS011;1015;49.756;6.994;2022-11-02T05:50:46;5.50;;;2.60;;
2021;SDS011;1015;49.756;6.994;2022-11-02T05:53:14;6.67;;;2.80;;
2021;SDS011;1015;49.756;6.994;2022-11-02T05:55:41;5.87;;;2.00;;
2021;SDS011;1015;49.756;6.994;2022-11-02T05:58:09;13.80;;;2.60;;
2021;SDS011;1015;49.756;6.994;2022-11-02T06:00:36;9.70;;;2.87;;
2021;SDS011;1015;49.756;6.994;2022-11-02T06:03:03;5.90;;;2.30;;
2021;SDS011;1015;49.756;6.994;2022-11-02T06:05:31;8.63;;;2.53;;
2021;SDS011;1015;49.756;6.994;2022-11-02T06:07:58;8.20;;;2.80;;
2021;SDS011;1015;49.756;6.994;2022-11-02T06:10:25;4.70;;;2.10;;
2021;SDS011;1015;49.756;6.994;2022-11-02T06:12:53;11.33;;;2.87;;
2021;SDS011;1015;49.756;6.994;2022-11-02T06:15:22;7.33;;;3.33;;
2021;SDS011;1015;49.756;6.994;2022-11-02T06:17:49;8.50;;;2.80;;
2021;SDS011;1015;49.756;6.994;2022-11-02T06:20:17;8.20;;;2.97;;
2021;SDS011;1015;49.756;6.994;2022-11-02T06:22:44;7.83;;;3.90;;
2021;SDS011;1015;49.756;6.994;2022-11-02T06:25:11;7.13;;;3.00;;
2021;SDS011;1015;49.756;6.994;2022-11-02T06:27:38;10.20;;;2.97;;
2021;SDS011;1015;49.756;6.994;2022-11-02T06:30:07;7.07;;;2.50;;
2021;SDS011;1015;49.756;6.994;2022-11-02T06:32:36;7.30;;;2.77;;
2021;SDS011;1015;49.756;6.994;2022-11-02T06:35:03;10.00;;;2.90;;
2021;SDS011;1015;49.756;6.994;2022-11-02T06:37:34;2.73;;;2.33;;
2021;SDS011;1015;49.756;6.994;2022-11-02T06:40:01;8.83;;;3.37;;
2021;SDS011;1015;49.756;6.994;2022-11-02T06:42:28;5.37;;;2.77;;
2021;SDS011;1015;49.756;6.994;2022-11-02T06:44:54;7.90;;;2.63;;
2021;SDS011;1015;49.756;6.994;2022-11-02T06:47:28;5.90;;;2.80;;
2021;SDS011;1015;49.756;6.994;2022-11-02T06:49:57;8.53;;;2.60;;
2021;SDS011;1015;49.756;6.994;2022-11-02T06:52:24;5.73;;;2.40;;
2021;SDS011;1015;49.756;6.994;2022-11-02T06:54:52;5.63;;;2.30;;
2021;SDS011;1015;49.756;6.994;2022-11-02T06:57:19;6.10;;;2.80;;
2021;SDS011;1015;49.756;6.994;2022-11-02T06:59:46;7.43;;;2.90;;
2021;SDS011;1015;49.756;6.994;2022-11-02T07:02:13;9.80;;;3.23;;
2021;SDS011;1015;49.756;6.994;2022-11-02T07:04:40;9.43;;;2.67;;
2021;SDS011;1015;49.756;6.994;2022-11-02T07:07:09;6.13;;;2.53;;
2021;SDS011;1015;49.756;6.994;2022-11-02T07:09:35;7.50;;;2.60;;
2021;SDS011;1015;49.756;6.994;2022-11-02T07:12:03;10.70;;;3.47;;
2021;SDS011;1015;49.756;6.994;2022-11-02T07:14:31;8.23;;;2.40;;
2021;SDS011;1015;49.756;6.994;2022-11-02T07:16:58;6.27;;;2.63;;
2021;SDS011;1015;49.756;6.994;2022-11-02T07:19:24;7.60;;;2.70;;
2021;SDS011;1015;49.756;6.994;2022-11-02T07:21:51;11.03;;;2.70;;
2021;SDS011;1015;49.756;6.994;2022-11-02T07:24:20;5.60;;;2.70;;
2021;SDS011;1015;49.756;6.994;2022-11-02T07:26:47;8.77;;;3.40;;
2021;SDS011;1015;49.756;6.994;2022-11-02T07:29:15;7.10;;;2.50;;
2021;SDS011;1015;49.756;6.994;2022-11-02T07:31:42;6.20;;;2.70;;
2021;SDS011;1015;49.756;6.994;2022-11-02T07:34:09;7.30;;;2.80;;
2021;SDS011;1015;49.756;6.994;2022-11-02T07:36:36;5.40;;;2.43;;
2021;SDS011;1015;49.756;6.994;2022-11-02T07:39:04;5.90;;;2.63;;
2021;SDS011;1015;49.756;6.994;2022-11-02T07:41:33;8.47;;;2.53;;
2021;SDS011;1015;49.756;6.994;2022-11-02T07:44:00;10.53;;;2.80;;
2021;SDS011;1015;49.756;6.994;2022-11-02T07:46:27;7.23;;;2.73;;
2021;SDS011;1015;49.756;6.994;2022-11-02T07:48:54;5.77;;;2.47;;
2021;SDS011;1015;49.756;6.994;2022-11-02T07:51:21;8.00;;;3.07;;
2021;SDS011;1015;49.756;6.994;2022-11-02T07:53:48;8.57;;;3.17;;
2021;SDS011;1015;49.756;6.994;2022-11-02T07:56:15;7.50;;;3.80;;
2021;SDS011;1015;49.756;6.994;2022-11-02T07:58:43;11.20;;;3.37;;
2021;SDS011;1015;49.756;6.994;2022-11-02T08:01:11;4.97;;;2.83;;
2021;SDS011;1015;49.756;6.994;2022-11-02T08:03:38;6.70;;;2.97;;
2021;SDS011;1015;49.756;6.994;2022-11-02T08:06:06;8.03;;;2.90;;
2021;SDS011;1015;49.756;6.994;2022-11-02T08:08:33;9.40;;;3.07;;
2021;SDS011;1015;49.756;6.994;2022-11-02T08:11:02;12.90;;;3.47;;
2021;SDS011;1015;49.756;6.994;2022-11-02T08:13:31;4.30;;;2.83;;
2021;SDS011;1015;49.756;6.994;2022-11-02T08:15:59;9.90;;;2.93;;
2021;SDS011;1015;49.756;6.994;2022-11-02T08:18:27;4.60;;;2.87;;
2021;SDS011;1015;49.756;6.994;2022-11-02T08:20:54;6.07;;;2.77;;
2021;SDS011;1015;49.756;6.994;2022-11-02T08:23:23;6.43;;;2.80;;
2021;SDS011;1015;49.756;6.994;2022-11-02T08:25:51;9.77;;;3.13;;
2021;SDS011;1015;49.756;6.994;2022-11-02T08:28:21;10.00;;;3.43;;
2021;SDS011;1015;49.756;6.994;2022-11-02T08:30:50;8.03;;;2.60;;
2021;SDS011;1015;49.756;6.994;2022-11-02T08:33:19;8.47;;;2.90;;
2021;SDS011;1015;49.756;6.994;2022-11-02T08:35:47;13.13;;;3.30;;
2021;SDS011;1015;49.756;6.994;2022-11-02T08:38:14;7.00;;;2.83;;
2021;SDS011;1015;49.756;6.994;2022-11-02T08:40:42;5.13;;;2.20;;
2021;SDS011;1015;49.756;6.994;2022-11-02T08:43:10;11.03;;;3.03;;
2021;SDS011;1015;49.756;6.994;2022-11-02T08:45:39;5.17;;;2.90;;
2021;SDS011;1015;49.756;6.994;2022-11-02T08:48:07;6.83;;;3.10;;
2021;SDS011;1015;49.756;6.994;2022-11-02T08:50:36;6.00;;;2.50;;
2021;SDS011;1015;49.756;6.994;2022-11-02T08:53:03;7.80;;;2.87;;
2021;SDS011;1015;49.756;6.994;2022-11-02T08:55:31;9.87;;;2.70;;
2021;SDS011;1015;49.756;6.994;2022-11-02T08:57:58;5.23;;;2.43;;
2021;SDS011;1015;49.756;6.994;2022-11-02T09:00:26;4.00;;;2.17;;
2021;SDS011;1015;49.756;6.994;2022-11-02T09:02:58;11.23;;;3.03;;
2021;SDS011;1015;49.756;6.994;2022-11-02T09:05:27;8.07;;;2.80;;
2021;SDS011;1015;49.756;6.994;2022-11-02T09:07:57;6.43;;;2.20;;
2021;SDS011;1015;49.756;6.994;2022-11-02T09:10:25;6.80;;;2.30;;
2021;SDS011;1015;49.756;6.994;2022-11-02T09:12:53;5.23;;;2.10;;
2021;SDS011;1015;49.756;6.994;2022-11-02T09:15:20;10.20;;;2.90;;
2021;SDS011;1015;49.756;6.994;2022-11-02T09:17:48;5.73;;;2.13;;
2021;SDS011;1015;49.756;6.994;2022-11-02T09:20:15;7.83;;;2.20;;
2021;SDS011;1015;49.756;6.994;2022-11-02T09:22:43;5.50;;;2.50;;
2021;SDS011;1015;49.756;6.994;2022-11-02T09:25:12;5.40;;;2.70;;
2021;SDS011;1015;49.756;6.994;2022-11-02T09:27:40;7.10;;;2.40;;
2021;SDS011;1015;49.756;6.994;2022-11-02T09:30:09;9.23;;;2.57;;
2021;SDS011;1015;49.756;6.994;2022-11-02T09:32:37;9.07;;;3.00;;
2021;SDS011;1015;49.756;6.994;2022-11-02T09:35:05;7.67;;;3.03;;
2021;SDS011;1015;49.756;6.994;2022-11-02T09:37:33;5.43;;;2.33;;
2021;SDS011;1015;49.756;6.994;2022-11-02T09:40:01;7.47;;;2.57;;
2021;SDS011;1015;49.756;6.994;2022-11-02T09:42:31;6.63;;;2.30;;
2021;SDS011;1015;49.756;6.994;2022-11-02T09:45:22;3.87;;;2.30;;
2021;SDS011;1015;49.756;6.994;2022-11-02T09:47:51;6.47;;;2.80;;
2021;SDS011;1015;49.756;6.994;2022-11-02T09:50:22;9.40;;;2.57;;
2021;SDS011;1015;49.756;6.994;2022-11-02T09:52:52;3.87;;;2.47;;
2021;SDS011;1015;49.756;6.994;2022-11-02T09:55:23;5.50;;;2.57;;
2021;SDS011;1015;49.756;6.994;2022-11-02T09:57:58;5.20;;;2.53;;
2021;SDS011;1015;49.756;6.994;2022-11-02T10:00:29;9.70;;;2.97;;
2021;SDS011;1015;49.756;6.994;2022-11-02T10:03:04;5.20;;;2.50;;
2021;SDS011;1015;49.756;6.994;2022-11-02T10:05:42;8.80;;;2.67;;
2021;SDS011;1015;49.756;6.994;2022-11-02T10:08:23;7.97;;;2.80;;
2021;SDS011;1015;49.756;6.994;2022-11-02T10:10:58;6.03;;;2.60;;
2021;SDS011;1015;49.756;6.994;2022-11-02T10:13:35;7.73;;;2.57;;
2021;SDS011;1015;49.756;6.994;2022-11-02T10:16:09;8.37;;;2.50;;
2021;SDS011;1015;49.756;6.994;2022-11-02T10:18:39;4.10;;;1.80;;
2021;SDS011;1015;49.756;6.994;2022-11-02T10:21:08;6.93;;;3.10;;
2021;SDS011;1015;49.756;6.994;2022-11-02T10:23:39;5.83;;;2.70;;
2021;SDS011;1015;49.756;6.994;2022-11-02T10:26:07;6.73;;;3.03;;
2021;SDS011;1015;49.756;6.994;2022-11-02T10:28:46;3.97;;;2.00;;
2021;SDS011;1015;49.756;6.994;2022-11-02T10:31:19;6.37;;;2.50;;
2021;SDS011;1015;49.756;6.994;2022-11-02T10:33:50;6.47;;;2.00;;
2021;SDS011;1015;49.756;6.994;2022-11-02T10:36:21;10.57;;;2.37;;
2021;SDS011;1015;49.756;6.994;2022-11-02T10:39:00;5.30;;;2.13;;
2021;SDS011;1015;49.756;6.994;2022-11-02T10:41:38;3.13;;;1.60;;
2021;SDS011;1015;49.756;6.994;2022-11-02T10:44:25;4.90;;;2.10;;
2021;SDS011;1015;49.756;6.994;2022-11-02T10:47:02;3.90;;;2.20;;
2021;SDS011;1015;49.756;6.994;2022-11-02T10:49:48;4.37;;;1.90;;
2021;SDS011;1015;49.756;6.994;2022-11-02T10:52:42;8.67;;;2.60;;
2021;SDS011;1015;49.756;6.994;2022-11-02T10:55:26;5.70;;;2.20;;
2021;SDS011;1015;49.756;6.994;2022-11-02T10:57:59;5.43;;;2.10;;
2021;SDS011;1015;49.756;6.994;2022-11-02T11:00:31;7.97;;;2.20;;
2021;SDS011;1015;49.756;6.994;2022-11-02T11:03:03;3.77;;;2.00;;
2021;SDS011;1015;49.756;6.994;2022-11-02T11:05:32;6.43;;;2.27;;
2021;SDS011;1015;49.756;6.994;2022-11-02T11:08:01;6.23;;;1.70;;
2021;SDS011;1015;49.756;6.994;2022-11-02T11:10:30;5.00;;;1.67;;
2021;SDS011;1015;49.756;6.994;2022-11-02T11:13:02;4.00;;;2.10;;
2021;SDS011;1015;49.756;6.994;2022-11-02T11:15:33;9.70;;;2.03;;
2021;SDS011;1015;49.756;6.994;2022-11-02T11:18:08;4.20;;;2.13;;
2021;SDS011;1015;49.756;6.994;2022-11-02T11:20:39;4.70;;;2.20;;
2021;SDS011;1015;49.756;6.994;2022-11-02T11:25:54;6.37;;;2.10;;
2021;SDS011;1015;49.756;6.994;2022-11-02T11:28:24;4.30;;;1.70;;
2021;SDS011;1015;49.756;6.994;2022-11-02T11:33:46;4.13;;;1.70;;
2021;SDS011;1015;49.756;6.994;2022-11-02T11:36:22;3.77;;;1.90;;
2021;SDS011;1015;49.756;6.994;2022-11-02T11:38:51;5.07;;;1.90;;
2021;SDS011;1015;49.756;6.994;2022-11-02T11:41:21;4.57;;;1.60;;
2021;SDS011;1015;49.756;6.994;2022-11-02T11:43:48;3.70;;;1.50;;
2021;SDS011;1015;49.756;6.994;2022-11-02T11:46:18;6.97;;;2.10;;
2021;SDS011;1015;49.756;6.994;2022-11-02T11:48:46;3.20;;;1.50;;
2021;SDS011;1015;49.756;6.994;2022-11-02T11:51:26;8.30;;;2.00;;
2021;SDS011;1015;49.756;6.994;2022-11-02T11:54:03;2.23;;;1.70;;
2021;SDS011;1015;49.756;6.994;2022-11-02T11:56:31;5.57;;;1.80;;
2021;SDS011;1015;49.756;6.994;2022-11-02T11:58:59;5.40;;;2.43;;
2021;SDS011;1015;49.756;6.994;2022-11-02T12:01:28;4.40;;;1.83;;
2021;SDS011;1015;49.756;6.994;2022-11-02T12:04:05;6.43;;;2.47;;
2021;SDS011;1015;49.756;6.994;2022-11-02T12:06:35;10.13;;;2.50;;
2021;SDS011;1015;49.756;6.994;2022-11-02T12:09:15;6.13;;;1.57;;
2021;SDS011;1015;49.756;6.994;2022-11-02T12:11:51;3.60;;;1.53;;
2021;SDS011;1015;49.756;6.994;2022-11-02T12:14:33;8.87;;;1.87;;
2021;SDS011;1015;49.756;6.994;2022-11-02T12:20:08;3.03;;;1.60;;
2021;SDS011;1015;49.756;6.994;2022-11-02T12:22:47;4.53;;;1.67;;
2021;SDS011;1015;49.756;6.994;2022-11-02T12:25:30;5.60;;;2.00;;
2021;SDS011;1015;49.756;6.994;2022-11-02T12:28:07;7.03;;;2.20;;
2021;SDS011;1015;49.756;6.994;2022-11-02T12:30:47;3.47;;;1.70;;
2021;SDS011;1015;49.756;6.994;2022-11-02T12:33:25;5.50;;;1.90;;
2021;SDS011;1015;49.756;6.994;2022-11-02T12:36:00;4.33;;;1.60;;
2021;SDS011;1015;49.756;6.994;2022-11-02T12:44:17;4.50;;;1.70;;
2021;SDS011;1015;49.756;6.994;2022-11-02T12:46:54;3.10;;;1.57;;
2021;SDS011;1015;49.756;6.994;2022-11-02T12:49:29;7.47;;;1.80;;
2021;SDS011;1015;49.756;6.994;2022-11-02T12:52:08;3.47;;;1.33;;
2021;SDS011;1015;49.756;6.994;2022-11-02T12:55:02;3.57;;;1.20;;
2021;SDS011;1015;49.756;6.994;2022-11-02T12:57:33;3.77;;;1.37;;
2021;SDS011;1015;49.756;6.994;2022-11-02T13:00:03;5.20;;;1.40;;
2021;SDS011;1015;49.756;6.994;2022-11-02T13:02:37;3.70;;;1.57;;
2021;SDS011;1015;49.756;6.994;2022-11-02T13:05:12;3.60;;;1.40;;
2021;SDS011;1015;49.756;6.994;2022-11-02T13:07:43;6.53;;;1.20;;
2021;SDS011;1015;49.756;6.994;2022-11-02T13:10:14;4.57;;;1.87;;
2021;SDS011;1015;49.756;6.994;2022-11-02T13:12:44;8.73;;;1.70;;
2021;SDS011;1015;49.756;6.994;2022-11-02T13:15:15;5.93;;;1.63;;
2021;SDS011;1015;49.756;6.994;2022-11-02T13:17:46;4.60;;;1.47;;
2021;SDS011;1015;49.756;6.994;2022-11-02T13:20:19;7.57;;;1.50;;
2021;SDS011;1015;49.756;6.994;2022-11-02T13:22:55;3.77;;;1.30;;
2021;SDS011;1015;49.756;6.994;2022-11-02T13:25:41;2.90;;;1.30;;
2021;SDS011;1015;49.756;6.994;2022-11-02T13:28:13;4.57;;;1.33;;
2021;SDS011;1015;49.756;6.994;2022-11-02T13:30:43;5.57;;;1.53;;
2021;SDS011;1015;49.756;6.994;2022-11-02T13:33:13;2.73;;;1.47;;
2021;SDS011;1015;49.756;6.994;2022-11-02T13:35:45;3.30;;;1.77;;
2021;SDS011;1015;49.756;6.994;2022-11-02T13:38:23;5.93;;;1.40;;
2021;SDS011;1015;49.756;6.994;2022-11-02T13:40:59;5.27;;;1.60;;
2021;SDS011;1015;49.756;6.994;2022-11-02T13:43:43;4.60;;;1.70;;
2021;SDS011;1015;49.756;6.994;2022-11-02T13:46:38;2.83;;;1.33;;
2021;SDS011;1015;49.756;6.994;2022-11-02T13:49:17;3.03;;;1.33;;
2021;SDS011;1015;49.756;6.994;2022-11-02T13:51:50;8.90;;;1.90;;
2021;SDS011;1015;49.756;6.994;2022-11-02T13:54:21;4.13;;;1.47;;
2021;SDS011;1015;49.756;6.994;2022-11-02T13:56:51;4.00;;;1.80;;
2021;SDS011;1015;49.756;6.994;2022-11-02T13:59:20;5.90;;;1.90;;
2021;SDS011;1015;49.756;6.994;2022-11-02T14:01:52;4.60;;;1.47;;
2021;SDS011;1015;49.756;6.994;2022-11-02T14:04:20;5.80;;;1.73;;
2021;SDS011;1015;49.756;6.994;2022-11-02T14:06:51;4.83;;;1.50;;
2021;SDS011;1015;49.756;6.994;2022-11-02T14:09:26;4.90;;;1.60;;
2021;SDS011;1015;49.756;6.994;2022-11-02T14:18:10;4.33;;;1.60;;
2021;SDS011;1015;49.756;6.994;2022-11-02T14:20:39;3.50;;;1.57;;
2021;SDS011;1015;49.756;6.994;2022-11-02T14:26:03;5.37;;;1.97;;
2021;SDS011;1015;49.756;6.994;2022-11-02T14:28:52;3.37;;;1.77;;
2021;SDS011;1015;49.756;6.994;2022-11-02T14:31:25;3.30;;;1.70;;
2021;SDS011;1015;49.756;6.994;2022-11-02T14:34:13;5.70;;;1.90;;
2021;SDS011;1015;49.756;6.994;2022-11-02T14:36:55;3.50;;;1.50;;
2021;SDS011;1015;49.756;6.994;2022-11-02T14:39:35;6.57;;;1.80;;
2021;SDS011;1015;49.756;6.994;2022-11-02T14:42:20;2.13;;;1.20;;
2021;SDS011;1015;49.756;6.994;2022-11-02T14:45:11;8.83;;;2.00;;
2021;SDS011;1015;49.756;6.994;2022-11-02T14:47:54;10.10;;;2.73;;
2021;SDS011;1015;49.756;6.994;2022-11-02T14:50:23;5.90;;;1.50;;
2021;SDS011;1015;49.756;6.994;2022-11-02T14:52:59;5.20;;;1.93;;
2021;SDS011;1015;49.756;6.994;2022-11-02T14:55:31;4.30;;;1.40;;
2021;SDS011;1015;49.756;6.994;2022-11-02T14:58:00;10.17;;;2.20;;
2021;SDS011;1015;49.756;6.994;2022-11-02T15:00:31;3.60;;;1.80;;
2021;SDS011;1015;49.756;6.994;2022-11-02T15:03:03;4.53;;;1.70;;
2021;SDS011;1015;49.756;6.994;2022-11-02T15:05:33;6.00;;;2.23;;
2021;SDS011;1015;49.756;6.994;2022-11-02T15:08:02;7.37;;;1.70;;
2021;SDS011;1015;49.756;6.994;2022-11-02T15:10:36;5.80;;;1.90;;
2021;SDS011;1015;49.756;6.994;2022-11-02T15:13:22;5.90;;;1.80;;
2021;SDS011;1015;49.756;6.994;2022-11-02T15:16:14;4.43;;;1.43;;
2021;SDS011;1015;49.756;6.994;2022-11-02T15:18:50;5.80;;;1.80;;
2021;SDS011;1015;49.756;6.994;2022-11-02T15:21:23;7.80;;;1.87;;
2021;SDS011;1015;49.756;6.994;2022-11-02T15:23:59;5.70;;;1.37;;
2021;SDS011;1015;49.756;6.994;2022-11-02T15:26:40;6.30;;;3.07;;
2021;SDS011;1015;49.756;6.994;2022-11-02T15:29:14;4.63;;;2.00;;
2021;SDS011;1015;49.756;6.994;2022-11-02T15:31:50;5.20;;;1.50;;
2021;SDS011;1015;49.756;6.994;2022-11-02T15:34:20;4.20;;;1.30;;
2021;SDS011;1015;49.756;6.994;2022-11-02T15:36:53;3.70;;;1.70;;
2021;SDS011;1015;49.756;6.994;2022-11-02T15:39:22;4.20;;;1.83;;
2021;SDS011;1015;49.756;6.994;2022-11-02T15:41:51;8.60;;;2.30;;
2021;SDS011;1015;49.756;6.994;2022-11-02T15:44:30;5.47;;;2.10;;
2021;SDS011;1015;49.756;6.994;2022-11-02T15:47:16;5.03;;;1.67;;
2021;SDS011;1015;49.756;6.994;2022-11-02T15:49:59;4.37;;;1.70;;
2021;SDS011;1015;49.756;6.994;2022-11-02T15:52:40;5.60;;;1.60;;
2021;SDS011;1015;49.756;6.994;2022-11-02T15:55:22;6.23;;;2.07;;
2021;SDS011;1015;49.756;6.994;2022-11-02T15:57:59;5.10;;;2.27;;
2021;SDS011;1015;49.756;6.994;2022-11-02T16:00:33;4.60;;;1.73;;
2021;SDS011;1015;49.756;6.994;2022-11-02T16:03:00;5.30;;;1.80;;
2021;SDS011;1015;49.756;6.994;2022-11-02T16:05:30;4.57;;;1.90;;